Time;durP1;ratioP1;P1;durP2;ratioP2;P2;SDS_P1;SDS_P2;PMS_P1;PMS_P2;Temp;Humidity;BMP_temperature;BMP_pressure;BME280_temperature;BME280_humidity;BME280_pressure;Samples;Min_cycle;Max_cycle;Signal;HPM_P1;HPM_P2
2023/11/25 00:00:26;;;;;;;;;;;;;;;25.56;42.65;93505.03;4967176;28;7368;-61
2023/11/25 00:03:14;;;;;;;;;;;;;;;25.53;42.17;93497.84;4954212;28;8515;-61
2023/11/25 00:06:20;;;;;;;;;;;;;;;25.55;42.31;93509.06;4971366;28;9257;-62
2023/11/25 00:09:15;;;;;;;;;;;;;;;25.56;42.07;93512.53;4919123;29;7268;-61
2023/11/25 00:12:17;;;;;;;;;;;;;;;25.57;42.18;93525.78;4928586;28;8149;-61
2023/11/25 00:15:19;;;;;;;;;;;;;;;25.55;42.26;93528.34;4934024;29;8380;-61
2023/11/25 00:18:03;;;;;;;;;;;;;;;25.52;42.75;93518.38;4916119;29;7304;-61
2023/11/25 00:21:26;;;;;;;;;;;;;;;25.54;42.08;93526.84;4910681;29;7170;-61
2023/11/25 00:23:52;;;;;;;;;;;;;;;25.52;41.95;93523.88;4915904;29;8928;-62
2023/11/25 00:26:27;;;;;;;;;;;;;;;25.52;42.77;93525.88;4904114;29;6985;-62
2023/11/25 00:29:04;;;;;;;;;;;;;;;25.51;42.36;93527.91;4913713;29;9203;-62
2023/11/25 00:31:40;;;;;;;;;;;;;;;25.52;42.44;93534.16;4915396;29;9484;-62
2023/11/25 00:34:16;;;;;;;;;;;;;;;25.56;42.29;93543.56;4931892;29;7297;-62
2023/11/25 00:36:52;;;;;;;;;;;;;;;25.54;42.48;93539.88;4896737;29;9213;-62
2023/11/25 00:39:39;;;;;;;;;;;;;;;25.54;41.98;93543.38;4926466;29;7258;-62
2023/11/25 00:42:16;;;;;;;;;;;;;;;25.55;42.35;93549.63;4937395;28;9178;-62
2023/11/25 00:44:45;;;;;;;;;;;;;;;25.52;41.89;93545.91;4970860;28;9105;-62
2023/11/25 00:47:22;;;;;;;;;;;;;;;25.54;41.74;93545.38;4946544;28;9691;-62
2023/11/25 00:49:52;;;;;;;;;;;;;;;25.54;42.17;93548.88;4943453;28;7223;-62
2023/11/25 00:52:25;;;;;;;;;;;;;;;25.54;42.21;93542.63;5022123;28;7243;-62
2023/11/25 00:55:11;;;;;;;;;;;;;;;25.52;41.91;93540.41;5062765;28;7288;-62
2023/11/25 00:57:39;;;;;;;;;;;;;;;25.54;42.01;93546.13;5057850;28;6998;-62
2023/11/25 01:00:09;;;;;;;;;;;;;;;25.53;41.69;93547.41;5064843;28;6993;-62
2023/11/25 01:02:37;;;;;;;;;;;;;;;25.53;42.68;93552.91;5074901;28;6990;-63
2023/11/25 01:05:07;;;;;;;;;;;;;;;25.50;42.29;93545.69;5075184;28;7211;-63
2023/11/25 01:07:33;;;;;;;;;;;;;;;25.51;42.35;93549.19;5063059;28;7314;-62
2023/11/25 01:09:59;;;;;;;;;;;;;;;25.52;41.97;93551.41;5077987;28;9029;-62
2023/11/25 01:12:25;;;;;;;;;;;;;;;25.50;41.62;93551.22;5061536;28;9244;-62
2023/11/25 01:14:52;;;;;;;;;;;;;;;25.50;41.79;93564.22;5072986;28;8504;-62
2023/11/25 01:17:29;;;;;;;;;;;;;;;25.54;42.31;93570.16;5069394;28;7075;-62
2023/11/25 01:19:58;;;;;;;;;;;;;;;25.52;41.70;93576.19;5069950;28;7403;-62
2023/11/25 01:22:53;;;;;;;;;;;;;;;25.52;41.64;93573.44;5058273;28;7322;-62
2023/11/25 01:25:19;;;;;;;;;;;;;;;25.52;42.27;93578.19;5005324;28;6974;-62
2023/11/25 01:27:56;;;;;;;;;;;;;;;25.49;41.53;93574.50;4989996;28;7282;-62
2023/11/25 01:30:52;;;;;;;;;;;;;;;25.50;42.03;93573.22;4998228;28;7116;-62
2023/11/25 01:33:26;;;;;;;;;;;;;;;25.49;42.21;93573.78;5007895;28;7556;-61
2023/11/25 01:36:21;;;;;;;;;;;;;;;25.50;41.75;93580.75;4996847;28;8751;-61
2023/11/25 01:39:34;;;;;;;;;;;;;;;25.50;42.23;93589.75;4933856;28;8026;-61
2023/11/25 01:42:02;;;;;;;;;;;;;;;25.51;42.22;93585.00;4916789;29;7241;-61
2023/11/25 01:44:47;;;;;;;;;;;;;;;25.50;42.29;93595.25;4925061;29;7221;-61
2023/11/25 01:47:15;;;;;;;;;;;;;;;25.49;41.79;93588.25;4900660;29;7185;-61
2023/11/25 01:49:50;;;;;;;;;;;;;;;25.48;41.64;93577.78;4900852;29;7267;-61
2023/11/25 01:52:18;;;;;;;;;;;;;;;25.48;41.54;93572.28;4916839;29;7213;-61
2023/11/25 01:54:45;;;;;;;;;;;;;;;25.46;41.83;93575.56;4916709;29;8903;-61
2023/11/25 01:57:15;;;;;;;;;;;;;;;25.46;41.58;93566.56;4914060;29;7149;-61
2023/11/25 01:59:41;;;;;;;;;;;;;;;25.48;41.31;93569.53;4920906;29;7363;-61
2023/11/25 02:02:07;;;;;;;;;;;;;;;25.45;41.78;93557.56;4914455;29;7020;-61
2023/11/25 02:04:33;;;;;;;;;;;;;;;25.48;42.12;93564.00;4933693;28;7404;-61
2023/11/25 02:07:05;;;;;;;;;;;;;;;25.48;42.07;93566.75;4920599;28;7561;-61
2023/11/25 02:09:42;;;;;;;;;;;;;;;25.45;41.32;93567.84;4938816;28;8075;-61
2023/11/25 02:12:11;;;;;;;;;;;;;;;25.47;41.28;93571.53;4923384;28;7110;-61
2023/11/25 02:14:47;;;;;;;;;;;;;;;25.47;41.72;93568.78;4952539;28;6997;-61
2023/11/25 02:17:22;;;;;;;;;;;;;;;25.47;41.70;93571.53;4976325;28;7221;-61
2023/11/25 02:20:37;;;;;;;;;;;;;;;25.43;41.37;93569.09;5041517;28;8813;-61
2023/11/25 02:23:19;;;;;;;;;;;;;;;25.47;41.72;93559.78;5015486;28;7265;-61
2023/11/25 02:25:48;;;;;;;;;;;;;;;25.47;41.83;93563.25;5028316;28;7528;-61
2023/11/25 02:28:17;;;;;;;;;;;;;;;25.46;41.93;93566.56;5027573;28;7318;-61
2023/11/25 02:31:04;;;;;;;;;;;;;;;25.46;42.01;93566.56;5038464;28;8800;-61
2023/11/25 02:33:45;;;;;;;;;;;;;;;25.47;41.56;93562.56;5018815;28;7437;-61
2023/11/25 02:36:11;;;;;;;;;;;;;;;25.47;41.74;93568.78;5020835;28;7238;-61
2023/11/25 02:38:40;;;;;;;;;;;;;;;25.47;41.87;93565.31;5015971;28;8954;-61
2023/11/25 02:41:18;;;;;;;;;;;;;;;25.46;41.71;93570.06;5001856;28;8871;-61
2023/11/25 02:43:46;;;;;;;;;;;;;;;25.45;41.20;93568.56;5003971;28;7124;-55
2023/11/25 02:46:44;;;;;;;;;;;;;;;25.47;42.00;93573.56;5010865;28;7244;-55
2023/11/25 02:49:41;;;;;;;;;;;;;;;25.46;41.45;93577.56;4972956;28;7245;-55
2023/11/25 02:52:52;;;;;;;;;;;;;;;25.46;41.44;93577.56;4934043;28;9517;-55
2023/11/25 02:55:37;;;;;;;;;;;;;;;25.46;41.56;93583.81;4937258;28;7177;-54
2023/11/25 02:58:04;;;;;;;;;;;;;;;25.42;41.68;93580.66;4931383;29;7423;-55
2023/11/25 03:01:01;;;;;;;;;;;;;;;25.45;41.65;93584.38;4922253;28;7256;-55
2023/11/25 03:03:28;;;;;;;;;;;;;;;25.44;41.82;93591.88;4935574;28;9051;-54
2023/11/25 03:05:55;;;;;;;;;;;;;;;25.44;41.53;93594.63;4916116;29;6993;-55
2023/11/25 03:08:47;;;;;;;;;;;;;;;25.43;40.95;93591.13;4922779;28;7206;-55
2023/11/25 03:12:05;;;;;;;;;;;;;;;25.42;41.71;93591.66;4918103;29;8638;-55
2023/11/25 03:15:11;;;;;;;;;;;;;;;25.40;41.88;93583.16;4926358;29;9391;-55
2023/11/25 03:17:51;;;;;;;;;;;;;;;25.38;41.43;93574.69;4864981;29;9131;-54
2023/11/25 03:20:26;;;;;;;;;;;;;;;25.38;41.39;93580.19;4881219;29;7081;-54
2023/11/25 03:22:54;;;;;;;;;;;;;;;25.37;41.41;93586.97;4856473;29;7523;-55
2023/11/25 03:25:33;;;;;;;;;;;;;;;25.35;41.25;93586.75;4887216;29;9200;-55
2023/11/25 03:28:16;;;;;;;;;;;;;;;25.39;41.45;93593.44;4910141;28;9334;-55
2023/11/25 03:34:21;;;;;;;;;;;;;;;25.36;41.07;93611.00;4930646;29;7302;-55
2023/11/25 03:37:22;;;;;;;;;;;;;;;25.36;40.96;93610.25;4934209;28;7163;-54
2023/11/25 03:40:17;;;;;;;;;;;;;;;25.36;41.14;93608.25;4932127;29;6957;-55
2023/11/25 03:43:13;;;;;;;;;;;;;;;25.37;41.04;93618.00;4899185;29;9451;-54
2023/11/25 03:45:50;;;;;;;;;;;;;;;25.40;41.56;93621.72;4894625;29;9130;-54
2023/11/25 03:48:36;;;;;;;;;;;;;;;25.40;41.03;93621.72;4892253;29;7515;-55
2023/11/25 03:51:05;;;;;;;;;;;;;;;25.39;41.55;93625.72;4876351;29;6987;-54
2023/11/25 03:54:19;;;;;;;;;;;;;;;25.39;41.09;93625.72;4883860;29;9051;-61
2023/11/25 03:57:05;;;;;;;;;;;;;;;25.38;41.41;93627.72;4884955;29;9023;-61
2023/11/25 03:59:48;;;;;;;;;;;;;;;25.37;41.06;93622.75;4874959;29;7297;-61
2023/11/25 04:02:42;;;;;;;;;;;;;;;25.36;41.99;93635.00;4883037;29;7263;-61
2023/11/25 04:05:52;;;;;;;;;;;;;;;25.34;41.79;93637.56;4876303;29;9406;-61
2023/11/25 04:09:02;;;;;;;;;;;;;;;25.35;41.01;93631.53;4864890;29;8772;-61
2023/11/25 04:11:28;;;;;;;;;;;;;;;25.36;41.81;93629.50;4876846;29;7246;-61
2023/11/25 04:13:57;;;;;;;;;;;;;;;25.33;41.97;93630.59;4888364;29;9274;-61
2023/11/25 04:16:50;;;;;;;;;;;;;;;25.35;41.06;93641.81;4895585;29;9198;-61
2023/11/25 04:19:36;;;;;;;;;;;;;;;25.34;41.12;93646.56;4915319;29;6998;-60
2023/11/25 04:22:34;;;;;;;;;;;;;;;25.40;40.85;93655.47;4957975;28;7552;-61
2023/11/25 04:25:03;;;;;;;;;;;;;;;25.38;41.08;93655.25;4943825;28;7288;-61
2023/11/25 04:28:24;;;;;;;;;;;;;;;25.41;41.68;93654.19;4946472;28;9099;-61
2023/11/25 04:31:04;;;;;;;;;;;;;;;25.39;41.33;93658.75;4903236;29;7243;-61
2023/11/25 04:33:52;;;;;;;;;;;;;;;25.41;40.80;93651.44;4908305;29;7413;-61
2023/11/25 04:36:53;;;;;;;;;;;;;;;25.41;40.87;93667.97;4898870;29;7224;-61
2023/11/25 04:39:38;;;;;;;;;;;;;;;25.42;41.19;93660.50;4901898;29;7957;-61
2023/11/25 04:42:30;;;;;;;;;;;;;;;25.42;41.71;93663.25;4917738;29;7267;-61
2023/11/25 04:45:27;;;;;;;;;;;;;;;25.42;40.97;93671.50;4909654;28;7000;-61
2023/11/25 04:48:09;;;;;;;;;;;;;;;25.38;41.56;93662.78;4933663;29;8145;-61
2023/11/25 04:50:44;;;;;;;;;;;;;;;25.40;41.61;93663.00;4925811;29;7245;-61
2023/11/25 04:53:21;;;;;;;;;;;;;;;25.41;41.26;93665.22;4925210;29;7036;-61
2023/11/25 04:56:04;;;;;;;;;;;;;;;25.44;41.34;93663.44;4921402;29;9199;-61
2023/11/25 04:58:31;;;;;;;;;;;;;;;25.47;41.16;93656.16;4907049;29;7069;-61
2023/11/25 05:01:17;;;;;;;;;;;;;;;25.47;41.66;93667.16;4923285;29;8772;-61
2023/11/25 05:03:52;;;;;;;;;;;;;;;25.43;41.15;93670.22;4919138;28;9256;-61
2023/11/25 05:06:19;;;;;;;;;;;;;;;25.43;41.47;93662.72;4956365;28;7521;-61
2023/11/25 05:08:45;;;;;;;;;;;;;;;25.42;41.60;93666.72;4955959;28;7124;-61
2023/11/25 05:11:11;;;;;;;;;;;;;;;25.40;40.82;93671.25;4957622;28;7537;-61
2023/11/25 05:13:46;;;;;;;;;;;;;;;25.39;41.16;93676.00;4955730;28;7308;-61
2023/11/25 05:16:41;;;;;;;;;;;;;;;25.40;41.55;93671.25;4939487;28;6982;-61
2023/11/25 05:20:03;;;;;;;;;;;;;;;25.41;40.80;93678.22;4874436;29;7170;-61
2023/11/25 05:22:38;;;;;;;;;;;;;;;25.38;41.35;93673.78;4879926;29;7252;-61
2023/11/25 05:25:49;;;;;;;;;;;;;;;25.37;40.86;93673.03;4921908;29;7276;-61
2023/11/25 05:28:37;;;;;;;;;;;;;;;25.36;40.93;93670.81;4920862;29;7003;-61
2023/11/25 05:31:22;;;;;;;;;;;;;;;25.36;41.56;93670.81;4937561;28;7263;-61
2023/11/25 05:34:28;;;;;;;;;;;;;;;25.35;41.06;93672.84;4926969;28;9139;-61
2023/11/25 05:37:19;;;;;;;;;;;;;;;25.35;40.96;93672.84;4934484;29;8752;-61
2023/11/25 05:39:59;;;;;;;;;;;;;;;25.36;41.30;93679.06;4935937;28;7366;-61
2023/11/25 05:42:27;;;;;;;;;;;;;;;25.34;41.68;93676.09;4920043;29;7582;-61
2023/11/25 05:44:54;;;;;;;;;;;;;;;25.35;40.92;93686.59;4940668;28;9226;-61
2023/11/25 05:47:23;;;;;;;;;;;;;;;25.34;41.35;93690.59;4925008;28;7283;-61
2023/11/25 05:50:00;;;;;;;;;;;;;;;25.34;41.92;93693.34;4943720;28;7812;-61
2023/11/25 05:52:36;;;;;;;;;;;;;;;25.39;41.51;93692.53;4938895;28;9259;-61
2023/11/25 05:55:05;;;;;;;;;;;;;;;25.46;41.20;93701.47;4944541;28;7105;-61
2023/11/25 05:57:44;;;;;;;;;;;;;;;25.45;41.08;93700.72;5019002;28;7362;-61
2023/11/25 06:00:12;;;;;;;;;;;;;;;25.51;40.90;93712.41;5015661;28;9077;-61
2023/11/25 06:02:56;;;;;;;;;;;;;;;25.53;41.09;93707.09;5021900;28;7493;-61
2023/11/25 06:05:42;;;;;;;;;;;;;;;25.56;41.32;93706.03;5046426;28;9246;-61
2023/11/25 06:08:09;;;;;;;;;;;;;;;25.54;41.42;93697.56;5047265;28;9075;-60
2023/11/25 06:10:37;;;;;;;;;;;;;;;25.55;40.98;93695.56;5064784;28;7329;-61
2023/11/25 06:13:06;;;;;;;;;;;;;;;25.49;41.22;93695.63;5061408;28;7048;-61
2023/11/25 06:15:35;;;;;;;;;;;;;;;25.49;41.47;93694.91;5047914;28;7052;-61
2023/11/25 06:18:07;;;;;;;;;;;;;;;25.48;41.14;93704.44;5073081;28;7308;-62
2023/11/25 06:20:34;;;;;;;;;;;;;;;25.46;41.04;93707.72;5068399;28;7061;-62
2023/11/25 06:23:01;;;;;;;;;;;;;;;25.46;40.80;93704.97;5066657;28;6980;-62
2023/11/25 06:26:01;;;;;;;;;;;;;;;25.42;40.80;93708.00;5054550;28;7667;-62
2023/11/25 06:28:28;;;;;;;;;;;;;;;25.42;41.43;93707.28;5026060;28;9117;-61
2023/11/25 06:31:39;;;;;;;;;;;;;;;25.42;41.66;93707.28;5015980;28;8956;-61
2023/11/25 06:34:22;;;;;;;;;;;;;;;25.41;41.47;93711.28;5008599;28;7207;-62
2023/11/25 06:36:49;;;;;;;;;;;;;;;25.42;41.38;93710.75;5017189;28;7228;-61
2023/11/25 06:39:19;;;;;;;;;;;;;;;25.47;41.49;93708.47;5029212;28;7342;-61
2023/11/25 06:41:48;;;;;;;;;;;;;;;25.52;40.85;93716.63;5030226;28;6982;-61
2023/11/25 06:44:21;;;;;;;;;;;;;;;25.57;41.41;93713.03;5012858;28;7263;-60
2023/11/25 06:46:52;;;;;;;;;;;;;;;25.58;41.45;93722.06;5025803;28;8881;-61
2023/11/25 06:49:21;;;;;;;;;;;;;;;25.55;40.73;93720.34;5025162;28;8762;-60
2023/11/25 06:51:47;;;;;;;;;;;;;;;25.58;41.25;93728.28;5010960;28;7271;-61
2023/11/25 06:54:16;;;;;;;;;;;;;;;25.59;41.28;93726.28;5027075;28;8863;-60
2023/11/25 06:56:47;;;;;;;;;;;;;;;25.64;41.18;93726.19;5024394;28;7249;-61
2023/11/25 06:59:33;;;;;;;;;;;;;;;25.65;40.75;93733.16;4998795;28;7152;-61
2023/11/25 07:01:59;;;;;;;;;;;;;;;25.64;40.49;93737.22;5027955;28;7265;-61
2023/11/25 07:05:01;;;;;;;;;;;;;;;25.65;40.87;93738.69;5045771;28;9047;-61
2023/11/25 07:07:38;;;;;;;;;;;;;;;25.64;40.77;93745.47;5014686;28;7441;-61
2023/11/25 07:10:09;;;;;;;;;;;;;;;25.64;40.12;93742.72;5020971;28;7024;-61
2023/11/25 07:12:50;;;;;;;;;;;;;;;25.65;41.17;93752.44;5025995;28;7253;-61
2023/11/25 07:15:50;;;;;;;;;;;;;;;25.67;40.44;93754.66;5001778;28;7118;-61
2023/11/25 07:18:52;;;;;;;;;;;;;;;25.67;40.87;93752.66;5005437;28;9068;-60
2023/11/25 07:21:31;;;;;;;;;;;;;;;25.68;41.18;93756.91;5017924;28;7275;-60
2023/11/25 07:24:56;;;;;;;;;;;;;;;25.67;40.57;93758.19;5010816;28;7248;-56
2023/11/25 07:27:23;;;;;;;;;;;;;;;25.61;40.52;93771.28;5009513;28;7238;-56
2023/11/25 07:30:27;;;;;;;;;;;;;;;25.60;41.12;93772.56;4998021;28;8808;-56
2023/11/25 07:32:55;;;;;;;;;;;;;;;25.61;41.19;93771.28;5001914;28;7317;-55
2023/11/25 07:35:34;;;;;;;;;;;;;;;25.65;40.41;93777.25;4995400;28;9262;-56
2023/11/25 07:38:16;;;;;;;;;;;;;;;25.66;40.27;93786.25;4994877;28;7636;-56
2023/11/25 07:41:05;;;;;;;;;;;;;;;25.64;41.20;93781.28;5003884;28;7001;-56
2023/11/25 07:43:32;;;;;;;;;;;;;;;25.67;40.38;93782.97;5062382;28;9303;-56
2023/11/25 07:46:28;;;;;;;;;;;;;;;25.68;40.58;93784.47;5066082;28;7403;-56
2023/11/25 07:48:54;;;;;;;;;;;;;;;25.68;41.20;93789.22;5048178;28;6993;-56
2023/11/25 07:51:21;;;;;;;;;;;;;;;25.65;40.90;93780.00;5068361;28;7191;-56
2023/11/25 07:53:56;;;;;;;;;;;;;;;25.69;40.89;93791.44;5050418;28;7222;-56
2023/11/25 07:56:25;;;;;;;;;;;;;;;25.69;40.55;93799.69;5054142;28;7313;-56
2023/11/25 07:58:51;;;;;;;;;;;;;;;25.63;41.00;93792.78;5056807;28;9138;-55
2023/11/25 08:01:17;;;;;;;;;;;;;;;25.66;40.41;93798.00;5069921;28;7215;-56
2023/11/25 08:03:43;;;;;;;;;;;;;;;25.67;40.58;93799.50;5048188;28;8519;-56
2023/11/25 08:06:15;;;;;;;;;;;;;;;25.68;40.79;93795.47;5054932;28;9158;-56
2023/11/25 08:08:55;;;;;;;;;;;;;;;25.68;40.82;93806.50;5054230;28;7394;-56
2023/11/25 08:11:29;;;;;;;;;;;;;;;25.69;40.97;93807.22;5068876;28;7414;-56
2023/11/25 08:13:55;;;;;;;;;;;;;;;25.69;40.72;93807.97;5073004;28;7093;-56
2023/11/25 08:16:22;;;;;;;;;;;;;;;25.70;40.88;93801.19;5078970;28;7232;-56
2023/11/25 08:18:55;;;;;;;;;;;;;;;25.70;40.62;93808.72;5049196;28;7265;-56
2023/11/25 08:21:25;;;;;;;;;;;;;;;25.69;40.48;93815.47;5061925;28;7062;-56
2023/11/25 08:24:04;;;;;;;;;;;;;;;25.73;40.35;93821.44;5057514;28;6981;-55
2023/11/25 08:26:31;;;;;;;;;;;;;;;25.73;40.12;93821.44;5061846;28;9869;-55
2023/11/25 08:29:00;;;;;;;;;;;;;;;25.74;40.33;93818.16;5060375;28;7679;-56
2023/11/25 08:31:29;;;;;;;;;;;;;;;25.72;40.36;93826.22;5053239;28;8873;-56
2023/11/25 08:33:54;;;;;;;;;;;;;;;25.74;40.34;93826.44;5049010;28;7328;-61
2023/11/25 08:36:22;;;;;;;;;;;;;;;25.76;40.05;93820.38;5060415;28;7432;-61
2023/11/25 08:38:56;;;;;;;;;;;;;;;25.74;39.98;93831.94;5065108;28;9206;-61
2023/11/25 08:41:24;;;;;;;;;;;;;;;25.77;40.01;93825.38;5077635;28;7066;-60
2023/11/25 08:43:51;;;;;;;;;;;;;;;25.75;40.02;93822.38;5062682;28;9037;-60
2023/11/25 08:46:20;;;;;;;;;;;;;;;25.75;40.15;93827.91;5054777;28;9177;-60
2023/11/25 08:48:46;;;;;;;;;;;;;;;25.71;40.88;93840.50;5055386;28;7274;-60
2023/11/25 08:51:14;;;;;;;;;;;;;;;25.72;40.17;93834.47;5058645;28;7322;-60
2023/11/25 08:53:44;;;;;;;;;;;;;;;25.74;40.71;93834.69;5060376;28;7321;-61
2023/11/25 08:56:11;;;;;;;;;;;;;;;25.70;39.99;93833.50;5067779;28;7242;-61
2023/11/25 08:58:37;;;;;;;;;;;;;;;25.71;41.12;93838.47;5075885;28;7409;-60
2023/11/25 09:01:07;;;;;;;;;;;;;;;25.66;40.58;93839.31;5056254;28;6986;-60
2023/11/25 09:03:33;;;;;;;;;;;;;;;25.68;41.18;93850.56;5056011;28;7257;-60
2023/11/25 09:05:59;;;;;;;;;;;;;;;25.70;40.08;93844.53;5070269;28;9090;-61
2023/11/25 09:08:28;;;;;;;;;;;;;;;25.70;40.87;93845.28;5072159;28;8939;-60
2023/11/25 09:10:56;;;;;;;;;;;;;;;25.75;40.49;93849.94;5075839;28;9099;-61
2023/11/25 09:13:21;;;;;;;;;;;;;;;25.75;41.08;93857.47;5068130;28;9169;-60
2023/11/25 09:15:50;;;;;;;;;;;;;;;25.76;40.28;93851.44;5055683;28;7313;-60
2023/11/25 09:18:22;;;;;;;;;;;;;;;25.75;40.52;93855.44;5073240;28;9320;-60
2023/11/25 09:20:50;;;;;;;;;;;;;;;25.74;40.98;93853.97;5066721;28;7235;-60
2023/11/25 09:23:18;;;;;;;;;;;;;;;25.80;41.23;93862.13;5055097;28;7086;-61
2023/11/25 09:25:46;;;;;;;;;;;;;;;25.80;40.65;93864.88;5061578;28;9167;-61
2023/11/25 09:28:14;;;;;;;;;;;;;;;25.81;40.50;93866.38;5061377;28;7054;-61
2023/11/25 09:30:40;;;;;;;;;;;;;;;25.79;40.66;93872.44;5060183;28;7243;-61
2023/11/25 09:33:08;;;;;;;;;;;;;;;25.81;41.69;93886.41;5072021;28;7187;-61
2023/11/25 09:35:35;;;;;;;;;;;;;;;25.82;41.37;93882.38;5055440;28;7050;-61
2023/11/25 09:38:01;;;;;;;;;;;;;;;25.81;40.78;93867.13;5067225;28;8828;-60
2023/11/25 09:40:29;;;;;;;;;;;;;;;25.84;41.59;93873.59;5079054;28;7054;-60
2023/11/25 09:42:55;;;;;;;;;;;;;;;25.85;41.41;93881.34;5075605;28;7188;-61
2023/11/25 09:45:35;;;;;;;;;;;;;;;25.81;41.47;93886.41;5061696;28;7240;-61
2023/11/25 09:48:05;;;;;;;;;;;;;;;25.82;40.88;93885.13;5055654;28;8140;-61
2023/11/25 09:50:37;;;;;;;;;;;;;;;25.79;41.27;93886.19;5061280;28;7350;-60
2023/11/25 09:53:26;;;;;;;;;;;;;;;25.82;41.09;93893.41;5074865;28;8313;-61
2023/11/25 09:56:07;;;;;;;;;;;;;;;25.79;41.92;93888.97;5066810;28;7011;-61
2023/11/25 09:58:35;;;;;;;;;;;;;;;25.81;41.75;93889.19;5060562;28;7056;-61
2023/11/25 10:01:18;;;;;;;;;;;;;;;25.83;41.79;93889.41;5055554;28;7309;-61
2023/11/25 10:03:57;;;;;;;;;;;;;;;25.84;41.41;93895.63;5071357;28;7232;-61
2023/11/25 10:06:42;;;;;;;;;;;;;;;25.83;41.77;93896.91;5080706;28;7112;-62
2023/11/25 10:09:24;;;;;;;;;;;;;;;25.86;41.87;93888.31;5073955;28;7395;-62
2023/11/25 10:11:53;;;;;;;;;;;;;;;25.88;42.14;93891.31;5063884;28;8166;-61
2023/11/25 10:14:33;;;;;;;;;;;;;;;25.91;41.19;93890.25;5078312;28;8395;-61
2023/11/25 10:17:19;;;;;;;;;;;;;;;25.94;41.57;93894.72;5082918;28;9305;-61
2023/11/25 10:20:19;;;;;;;;;;;;;;;25.93;41.18;93890.47;5053543;28;7235;-62
2023/11/25 10:22:53;;;;;;;;;;;;;;;25.92;41.00;93888.25;5070731;28;7183;-61
2023/11/25 10:25:25;;;;;;;;;;;;;;;25.94;40.94;93894.72;5069629;28;7252;-61
2023/11/25 10:27:54;;;;;;;;;;;;;;;25.94;41.01;93891.97;5069280;28;7006;-61
2023/11/25 10:30:24;;;;;;;;;;;;;;;25.92;40.83;93877.97;5070084;28;8834;-62
2023/11/25 10:33:00;;;;;;;;;;;;;;;25.92;41.50;93880.00;5059847;28;6863;-62
2023/11/25 10:35:37;;;;;;;;;;;;;;;25.91;41.09;93882.00;5049982;28;7269;-61
2023/11/25 10:38:12;;;;;;;;;;;;;;;25.92;41.10;93877.97;5059718;28;7155;-62
2023/11/25 10:40:42;;;;;;;;;;;;;;;25.93;40.94;93876.69;5055671;28;7421;-61
2023/11/25 10:43:26;;;;;;;;;;;;;;;25.95;40.92;93874.16;5058110;28;7333;-62
2023/11/25 10:46:17;;;;;;;;;;;;;;;25.95;41.45;93874.16;5077808;28;7080;-61
2023/11/25 10:48:53;;;;;;;;;;;;;;;25.92;41.37;93864.22;5071070;28;7238;-61
2023/11/25 10:51:24;;;;;;;;;;;;;;;25.93;41.62;93871.19;5066748;28;8048;-61
2023/11/25 10:53:52;;;;;;;;;;;;;;;25.95;40.90;93862.38;5069276;28;7231;-61
2023/11/25 10:56:21;;;;;;;;;;;;;;;25.96;41.50;93861.13;5062348;28;9002;-60
2023/11/25 10:58:58;;;;;;;;;;;;;;;25.98;41.02;93853.09;5070817;28;9188;-60
2023/11/25 11:01:42;;;;;;;;;;;;;;;26.00;41.46;93856.81;5054076;28;8811;-60
2023/11/25 11:04:36;;;;;;;;;;;;;;;26.02;41.33;93848.00;5057079;28;7323;-60
2023/11/25 11:07:04;;;;;;;;;;;;;;;26.03;41.44;93852.97;5062516;28;7215;-61
2023/11/25 11:09:38;;;;;;;;;;;;;;;26.02;40.82;93850.75;5062852;28;7175;-61
2023/11/25 11:12:33;;;;;;;;;;;;;;;26.04;40.57;93857.22;5058154;28;9081;-61
2023/11/25 11:15:18;;;;;;;;;;;;;;;26.03;40.77;93855.00;5067564;28;7259;-60
2023/11/25 11:18:06;;;;;;;;;;;;;;;26.05;40.46;93853.22;5070821;28;7263;-61
2023/11/25 11:21:00;;;;;;;;;;;;;;;26.02;40.88;93854.25;5080029;28;7155;-61
2023/11/25 11:23:47;;;;;;;;;;;;;;;25.98;40.59;93851.06;5006419;28;9196;-61
2023/11/25 11:26:59;;;;;;;;;;;;;;;26.01;40.20;93858.28;5017870;28;8243;-60
2023/11/25 11:29:36;;;;;;;;;;;;;;;26.03;41.06;93850.22;4998854;28;8455;-61
2023/11/25 11:32:18;;;;;;;;;;;;;;;26.00;41.08;93858.81;5022426;28;7359;-61
2023/11/25 11:34:46;;;;;;;;;;;;;;;25.98;40.48;93856.59;5004435;28;7226;-61
2023/11/25 11:37:48;;;;;;;;;;;;;;;25.97;40.48;93857.84;5004249;28;7327;-60
2023/11/25 11:40:29;;;;;;;;;;;;;;;25.97;40.94;93852.34;4972655;28;7008;-60
2023/11/25 11:43:19;;;;;;;;;;;;;;;25.97;40.96;93852.34;4962768;28;7472;-61
2023/11/25 11:45:54;;;;;;;;;;;;;;;25.97;41.04;93846.81;4961446;28;8864;-61
2023/11/25 11:48:25;;;;;;;;;;;;;;;25.98;41.06;93848.31;4966315;28;7276;-61
2023/11/25 11:51:02;;;;;;;;;;;;;;;25.96;40.98;93852.88;4987349;28;7124;-61
2023/11/25 11:53:38;;;;;;;;;;;;;;;25.94;41.30;93845.13;4978503;28;7208;-61
2023/11/25 11:56:17;;;;;;;;;;;;;;;25.92;40.56;93844.91;4960475;28;6935;-61
2023/11/25 11:58:58;;;;;;;;;;;;;;;25.96;41.02;93848.09;4959957;28;7201;-60
2023/11/25 12:01:33;;;;;;;;;;;;;;;25.98;41.22;93848.31;4992641;28;7264;-61
2023/11/25 12:03:59;;;;;;;;;;;;;;;25.96;40.57;93834.34;4991316;28;7354;-60
2023/11/25 12:06:44;;;;;;;;;;;;;;;25.98;40.72;93842.06;4980482;28;7061;-60
2023/11/25 12:09:15;;;;;;;;;;;;;;;25.92;41.31;93828.38;4996582;28;6985;-61
2023/11/25 12:12:00;;;;;;;;;;;;;;;25.94;41.19;93836.88;4978352;28;9068;-61
2023/11/25 12:14:27;;;;;;;;;;;;;;;25.93;40.92;93837.38;4995976;28;9247;-61
2023/11/25 12:17:05;;;;;;;;;;;;;;;25.91;40.82;93837.16;5066335;28;7099;-60
2023/11/25 12:19:41;;;;;;;;;;;;;;;25.90;41.48;93841.19;5076943;28;7312;-60
2023/11/25 12:22:16;;;;;;;;;;;;;;;25.91;41.61;93843.41;5067677;28;7346;-60
2023/11/25 12:24:42;;;;;;;;;;;;;;;25.92;41.43;93844.91;5083552;28;7078;-60
2023/11/25 12:27:13;;;;;;;;;;;;;;;25.92;40.48;93846.94;5064919;28;7487;-60
2023/11/25 12:29:49;;;;;;;;;;;;;;;25.90;40.76;93847.44;5070604;28;6981;-60
2023/11/25 12:32:17;;;;;;;;;;;;;;;25.87;40.90;93848.50;5055049;28;7629;-61
2023/11/25 12:34:47;;;;;;;;;;;;;;;25.87;40.71;93842.25;5043589;28;7309;-60
2023/11/25 12:37:14;;;;;;;;;;;;;;;25.90;40.53;93850.19;5067915;28;8242;-60
2023/11/25 12:39:47;;;;;;;;;;;;;;;25.89;40.27;93851.47;5055587;28;7311;-60
2023/11/25 12:42:23;;;;;;;;;;;;;;;25.88;40.47;93847.22;5067660;28;7251;-60
2023/11/25 12:44:55;;;;;;;;;;;;;;;25.86;40.86;93844.25;5073099;28;6966;-59
2023/11/25 12:47:21;;;;;;;;;;;;;;;25.90;40.63;93836.41;5070060;28;7062;-59
2023/11/25 12:49:52;;;;;;;;;;;;;;;25.91;40.02;93834.41;5074660;28;7240;-60
2023/11/25 12:52:22;;;;;;;;;;;;;;;25.88;40.01;93825.19;5056520;28;9182;-60
2023/11/25 12:54:49;;;;;;;;;;;;;;;25.93;39.95;93838.13;5056521;28;6993;-60
2023/11/25 12:57:24;;;;;;;;;;;;;;;25.90;39.45;93833.66;5061491;28;9049;-60
2023/11/25 13:00:38;;;;;;;;;;;;;;;25.90;39.92;93847.44;5074214;28;9020;-60
2023/11/25 13:03:31;;;;;;;;;;;;;;;25.87;39.98;93840.25;4992582;28;7299;-60
2023/11/25 13:05:59;;;;;;;;;;;;;;;25.88;39.81;93835.47;4987985;28;7283;-61
2023/11/25 13:08:47;;;;;;;;;;;;;;;25.93;39.60;93818.84;4977218;28;9157;-60
2023/11/25 13:11:18;;;;;;;;;;;;;;;26.01;40.17;93830.72;4983850;28;10031;-59
2023/11/25 13:13:45;;;;;;;;;;;;;;;25.96;40.09;93831.56;4984841;28;7500;-60
2023/11/25 13:16:22;;;;;;;;;;;;;;;25.94;40.34;93825.09;4977057;28;7061;-60
2023/11/25 13:18:53;;;;;;;;;;;;;;;25.94;40.57;93817.59;4996992;28;7277;-60
2023/11/25 13:21:20;;;;;;;;;;;;;;;25.93;40.59;93810.56;4987209;28;9190;-60
2023/11/25 13:23:48;;;;;;;;;;;;;;;25.92;40.07;93822.13;4990124;28;7408;-56
2023/11/25 13:26:28;;;;;;;;;;;;;;;25.90;40.16;93819.16;4975587;28;7352;-56
2023/11/25 13:29:36;;;;;;;;;;;;;;;25.92;40.74;93817.38;4989866;28;8890;-56
2023/11/25 13:32:16;;;;;;;;;;;;;;;25.89;40.57;93810.16;4986149;28;7522;-56
2023/11/25 13:35:17;;;;;;;;;;;;;;;25.88;39.43;93816.91;4993267;28;7011;-56
2023/11/25 13:38:08;;;;;;;;;;;;;;;25.89;38.77;93812.91;4904722;29;8967;-57
2023/11/25 13:41:11;;;;;;;;;;;;;;;25.86;39.17;93816.69;4944547;28;8959;-56
2023/11/25 13:44:13;;;;;;;;;;;;;;;25.86;38.85;93819.44;4959157;28;7735;-56
2023/11/25 13:46:54;;;;;;;;;;;;;;;25.83;39.18;93814.25;4917904;29;9215;-56
2023/11/25 13:49:22;;;;;;;;;;;;;;;25.85;39.37;93831.75;4908727;29;9129;-56
2023/11/25 13:51:51;;;;;;;;;;;;;;;25.83;38.55;93828.78;4929091;28;8886;-56
2023/11/25 13:54:20;;;;;;;;;;;;;;;25.84;38.37;93835.75;4908106;29;7441;-56
2023/11/25 13:56:48;;;;;;;;;;;;;;;25.81;38.17;93831.31;4918388;29;9266;-56
2023/11/25 13:59:17;;;;;;;;;;;;;;;25.80;38.36;93838.09;4913343;29;7561;-56